Time;durP1;ratioP1;P1;durP2;ratioP2;P2;SDS_P1;SDS_P2;PMS_P1;PMS_P2;Temp;Humidity;BMP_temperature;BMP_pressure;BME280_temperature;BME280_humidity;BME280_pressure;Samples;Min_cycle;Max_cycle;Signal;HPM_P1;HPM_P2
2021/03/27 00:02:30;;;;;;;85.65;42.50;;;;;;;8.93;62.11;100433.56;2204257;79;28904;-71
2021/03/27 00:05:47;;;;;;;76.65;41.48;;;;;;;9.01;62.05;100433.25;2222150;79;27691;-71
2021/03/27 00:08:58;;;;;;;82.10;46.30;;;;;;;9.09;62.11;100427.59;2221112;79;27909;-71
2021/03/27 00:12:21;;;;;;;82.35;45.98;;;;;;;9.16;61.98;100427.72;2228082;79;31156;-69
2021/03/27 00:15:39;;;;;;;82.90;46.55;;;;;;;9.20;62.00;100422.66;2229127;79;33115;-70
2021/03/27 00:18:52;;;;;;;94.72;53.65;;;;;;;9.26;61.86;100418.85;2229312;79;28862;-71
2021/03/27 00:21:59;;;;;;;78.85;45.28;;;;;;;9.27;61.86;100414.77;2206490;79;27680;-70
2021/03/27 00:25:24;;;;;;;88.85;44.83;;;;;;;9.33;61.77;100408.77;2189413;81;29692;-68
2021/03/27 00:28:46;;;;;;;76.72;43.28;;;;;;;9.35;61.69;100409.09;2105164;84;32155;-67
2021/03/27 00:31:56;;;;;;;85.45;46.42;;;;;;;9.37;61.63;100413.91;2125128;83;33064;-70
2021/03/27 00:35:10;;;;;;;80.55;45.60;;;;;;;9.38;61.57;100408.97;2104329;82;28851;-70
2021/03/27 00:38:17;;;;;;;88.03;47.75;;;;;;;9.38;61.48;100400.94;2144189;83;27769;-67
2021/03/27 00:41:29;;;;;;;85.87;49.73;;;;;;;9.38;61.43;100401.42;2103109;84;28854;-72
2021/03/27 00:44:37;;;;;;;91.12;50.12;;;;;;;9.35;61.48;100398.88;2128172;83;31654;-71
2021/03/27 00:48:07;;;;;;;88.73;49.13;;;;;;;9.37;61.52;100399.20;2247955;78;29387;-69
2021/03/27 00:51:17;;;;;;;94.03;50.55;;;;;;;9.27;61.57;100393.37;2211771;79;27701;-70
2021/03/27 00:54:33;;;;;;;95.05;49.05;;;;;;;9.23;61.64;100388.23;2189721;81;28107;-72
2021/03/27 00:57:40;;;;;;;92.17;52.35;;;;;;;9.19;61.61;100382.16;2189801;81;31131;-70
2021/03/27 01:00:46;;;;;;;100.38;51.05;;;;;;;9.15;61.69;100379.20;2188977;79;33969;-69
2021/03/27 01:04:00;;;;;;;96.32;52.65;;;;;;;9.11;61.77;100380.27;2203723;79;28604;-70
2021/03/27 01:07:06;;;;;;;87.97;49.48;;;;;;;9.06;61.80;100372.93;2146611;81;27691;-68
2021/03/27 01:10:31;;;;;;;90.30;50.70;;;;;;;8.98;61.89;100373.25;2146009;81;28818;-71
2021/03/27 01:13:46;;;;;;;90.03;49.63;;;;;;;8.93;61.75;100371.23;2144922;82;31157;-72
2021/03/27 01:16:56;;;;;;;89.45;49.98;;;;;;;8.86;61.97;100365.73;2205707;80;33074;-71
2021/03/27 01:20:02;;;;;;;83.15;46.35;;;;;;;8.80;61.89;100368.19;2133135;82;29821;-71
2021/03/27 01:23:06;;;;;;;83.33;46.40;;;;;;;8.74;62.11;100360.45;2175731;81;27558;-64
2021/03/27 01:26:14;;;;;;;84.03;46.85;;;;;;;8.67;62.10;100354.49;2179397;81;28824;-69
2021/03/27 01:29:27;;;;;;;79.92;43.80;;;;;;;8.61;62.19;100357.40;2185552;80;33589;-70
2021/03/27 01:32:46;;;;;;;88.40;43.42;;;;;;;8.55;62.35;100353.19;2209452;80;35394;-72
2021/03/27 01:36:12;;;;;;;80.20;43.20;;;;;;;8.47;62.54;100350.79;2141283;83;28867;-70
2021/03/27 01:39:21;;;;;;;87.08;47.60;;;;;;;8.43;62.58;100353.17;2134276;83;27676;-66
2021/03/27 01:42:45;;;;;;;87.65;46.98;;;;;;;8.39;62.62;100340.02;2068316;84;28853;-72
2021/03/27 01:46:28;;;;;;;88.78;46.70;;;;;;;8.36;62.74;100344.54;2078241;85;31259;-70
2021/03/27 01:49:44;;;;;;;83.07;45.73;;;;;;;8.32;62.92;100341.58;2087297;83;33051;-72
2021/03/27 01:53:00;;;;;;;80.42;45.28;;;;;;;8.27;62.86;100336.91;2120381;83;29359;-71
2021/03/27 01:56:42;;;;;;;86.08;46.95;;;;;;;8.24;63.00;100340.14;2120327;83;27739;-72
2021/03/27 01:59:52;;;;;;;82.72;43.68;;;;;;;8.19;62.97;100336.33;2118873;83;28904;-71
2021/03/27 02:03:11;;;;;;;80.40;45.33;;;;;;;8.13;62.95;100332.55;2082154;83;31154;-69
2021/03/27 02:06:31;;;;;;;83.25;43.92;;;;;;;8.08;63.00;100327.41;2077579;85;33270;-71
2021/03/27 02:10:08;;;;;;;80.20;41.85;;;;;;;8.03;62.86;100326.25;2086323;83;30348;-72
2021/03/27 02:13:43;;;;;;;78.50;40.83;;;;;;;8.00;63.10;100326.37;2135679;82;27719;-70
2021/03/27 02:16:53;;;;;;;74.62;40.88;;;;;;;7.96;63.08;100319.88;2149163;82;28025;-69
2021/03/27 02:20:35;;;;;;;76.28;40.92;;;;;;;7.90;63.20;100317.84;2169136;81;31237;-70
2021/03/27 02:24:10;;;;;;;74.65;42.03;;;;;;;7.84;63.34;100320.77;2150596;82;35502;-70
2021/03/27 02:27:23;;;;;;;83.15;40.88;;;;;;;7.79;63.53;100320.51;2192838;81;28862;-68
2021/03/27 02:30:38;;;;;;;79.22;41.75;;;;;;;7.72;63.66;100314.09;2158777;81;27664;-71
2021/03/27 02:34:11;;;;;;;78.37;41.23;;;;;;;7.66;63.86;100314.31;2195634;81;28804;-72
2021/03/27 02:37:55;;;;;;;81.67;43.78;;;;;;;7.60;63.83;100306.08;2192962;81;31185;-71
2021/03/27 02:41:48;;;;;;;84.20;43.52;;;;;;;7.57;64.00;100307.52;2131577;83;33139;-70
2021/03/27 02:45:01;;;;;;;78.50;40.15;;;;;;;7.51;63.84;100309.11;2131932;83;28985;-72
2021/03/27 02:48:12;;;;;;;81.80;41.13;;;;;;;7.46;64.31;100305.73;2165998;81;27754;-71
2021/03/27 02:51:41;;;;;;;78.37;39.97;;;;;;;7.45;64.26;100297.32;2343142;76;27691;-70
2021/03/27 02:54:54;;;;;;;76.45;42.55;;;;;;;7.37;64.49;100304.27;2303190;77;27614;-70
2021/03/27 02:58:23;;;;;;;82.25;42.70;;;;;;;7.36;64.40;100307.86;2302983;77;28885;-69
2021/03/27 03:01:40;;;;;;;82.50;43.40;;;;;;;7.35;64.48;100307.92;2303472;77;31148;-66
2021/03/27 03:05:06;;;;;;;80.77;44.00;;;;;;;7.34;64.36;100317.70;2261132;78;33079;-69
2021/03/27 03:08:23;;;;;;;;;;;;;;;7.32;64.61;100318.69;2277795;77;28996;-68
2021/03/27 03:11:55;;;;;;;83.12;42.98;;;;;;;7.26;64.72;100310.45;2303691;77;27662;-70
2021/03/27 03:15:17;;;;;;;76.87;42.20;;;;;;;7.18;65.18;100301.84;2303648;77;28094;-72
2021/03/27 03:18:49;;;;;;;82.50;45.85;;;;;;;7.11;64.80;100301.20;2302171;77;31085;-70
2021/03/27 03:22:15;;;;;;;84.07;44.27;;;;;;;7.08;64.76;100307.52;2303271;77;33855;-68
2021/03/27 03:25:22;;;;;;;84.05;44.00;;;;;;;7.03;64.96;100306.80;2303268;77;29376;-63
2021/03/27 03:28:53;;;;;;;88.70;44.23;;;;;;;6.97;65.14;100305.67;2292679;77;27656;-70
2021/03/27 03:32:07;;;;;;;84.28;43.23;;;;;;;6.88;65.16;100294.87;2302656;77;28829;-71
2021/03/27 03:35:40;;;;;;;72.90;39.15;;;;;;;6.80;65.17;100287.63;2303652;77;30302;-68
2021/03/27 03:39:13;;;;;;;85.55;45.75;;;;;;;6.72;65.97;100293.21;2281929;77;35391;-69
2021/03/27 03:42:49;;;;;;;85.67;43.25;;;;;;;6.65;65.30;100292.55;2283962;77;28857;-70
2021/03/27 03:46:18;;;;;;;84.60;43.40;;;;;;;6.60;65.39;100282.98;2208216;80;27691;-70
2021/03/27 03:50:06;;;;;;;83.25;43.15;;;;;;;6.54;65.54;100285.36;2196344;80;27728;-69
2021/03/27 03:53:36;;;;;;;78.67;38.60;;;;;;;6.47;65.62;100276.71;2213891;79;31157;-68
2021/03/27 03:57:14;;;;;;;87.12;42.73;;;;;;;6.44;65.92;100283.49;2182921;81;33556;-72
2021/03/27 04:00:21;;;;;;;86.63;43.20;;;;;;;6.43;66.01;100284.41;2124465;82;27764;-71
2021/03/27 04:04:01;;;;;;;84.20;42.70;;;;;;;6.46;65.89;100275.45;2341430;75;27708;-69
2021/03/27 04:07:06;;;;;;;90.10;43.28;;;;;;;6.38;66.22;100274.37;2264215;77;27647;-70
2021/03/27 04:10:19;;;;;;;86.75;43.40;;;;;;;6.33;66.10;100275.86;2299955;77;28910;-70
2021/03/27 04:13:41;;;;;;;87.75;46.18;;;;;;;6.31;66.20;100275.03;2261906;78;32318;-71
2021/03/27 04:16:44;;;;;;;83.70;43.85;;;;;;;6.29;66.33;100275.54;2233549;77;33542;-70
2021/03/27 04:20:03;;;;;;;82.40;42.48;;;;;;;6.25;66.31;100269.05;2261837;78;28525;-71
2021/03/27 04:23:24;;;;;;;94.47;43.77;;;;;;;6.25;66.48;100267.23;2252214;77;27733;-67
2021/03/27 04:26:37;;;;;;;89.72;42.90;;;;;;;6.16;66.28;100263.56;2216950;80;27605;-67
2021/03/27 04:29:56;;;;;;;85.80;43.23;;;;;;;6.12;66.50;100263.23;2209028;80;28823;-70
2021/03/27 04:33:06;;;;;;;81.20;43.30;;;;;;;6.08;66.77;100263.80;2140383;82;31354;-68
2021/03/27 04:36:20;;;;;;;84.85;43.45;;;;;;;6.04;66.67;100259.48;2127756;83;34057;-68
2021/03/27 04:39:30;;;;;;;73.70;39.38;;;;;;;6.02;66.81;100259.55;2193760;81;28955;-69
2021/03/27 04:42:45;;;;;;;77.12;39.85;;;;;;;6.03;67.03;100265.28;2193963;81;27819;-68
2021/03/27 04:45:56;;;;;;;84.32;41.30;;;;;;;6.03;66.99;100265.73;2193802;81;28836;-69
2021/03/27 04:49:22;;;;;;;81.43;40.20;;;;;;;6.10;66.68;100266.40;2241764;77;27653;-63
2021/03/27 04:52:54;;;;;;;71.75;38.02;;;;;;;6.07;66.70;100262.91;2217393;80;27709;-68
2021/03/27 04:56:21;;;;;;;87.35;40.98;;;;;;;6.06;66.58;100261.65;2216790;80;29853;-70
2021/03/27 05:00:02;;;;;;;77.55;39.70;;;;;;;6.09;66.79;100272.19;2178444;81;31148;-64
2021/03/27 05:03:33;;;;;;;60.28;32.42;;;;;;;6.14;66.67;100265.39;2214499;80;33146;-69
2021/03/27 05:07:05;;;;;;;71.77;37.13;;;;;;;6.30;66.74;100256.44;2330874;76;27680;-70
2021/03/27 05:10:15;;;;;;;74.37;36.85;;;;;;;6.33;66.59;100261.22;2262039;78;27661;-68
2021/03/27 05:13:38;;;;;;;65.67;34.20;;;;;;;6.44;66.50;100259.98;2261987;78;28823;-71
2021/03/27 05:16:42;;;;;;;59.95;31.90;;;;;;;6.55;66.34;100264.48;2270214;77;31284;-71
2021/03/27 05:20:08;;;;;;;70.57;35.30;;;;;;;6.64;66.15;100252.66;2253764;78;33153;-68
2021/03/27 05:23:32;;;;;;;73.37;35.52;;;;;;;6.72;66.09;100253.28;2272747;77;29575;-70
2021/03/27 05:27:13;;;;;;;64.07;32.93;;;;;;;6.81;65.93;100250.28;2270414;77;27738;-68
2021/03/27 05:30:30;;;;;;;65.85;33.53;;;;;;;6.94;65.75;100252.06;2303037;77;29220;-70
2021/03/27 05:34:14;;;;;;;64.95;33.75;;;;;;;7.06;65.60;100255.20;2302067;77;31146;-68
2021/03/27 05:37:57;;;;;;;64.67;35.78;;;;;;;7.17;65.41;100249.05;2302074;77;33066;-70
2021/03/27 05:41:29;;;;;;;60.88;32.63;;;;;;;7.26;65.25;100247.36;2266711;77;31176;-70
2021/03/27 05:45:17;;;;;;;64.45;32.13;;;;;;;7.33;65.02;100240.48;2261733;78;27649;-72
2021/03/27 05:48:47;;;;;;;64.27;32.70;;;;;;;7.40;64.98;100237.98;2292706;77;29027;-68
2021/03/27 05:52:00;;;;;;;59.55;31.65;;;;;;;7.48;64.86;100247.91;2302808;77;31139;-70
2021/03/27 05:55:46;;;;;;;66.47;32.10;;;;;;;7.55;64.71;100248.53;2303410;77;33173;-70
2021/03/27 05:59:17;;;;;;;69.07;33.23;;;;;;;7.61;64.56;100240.31;2298795;77;28863;-71
2021/03/27 06:02:46;;;;;;;60.20;31.73;;;;;;;7.69;64.36;100240.87;2291841;77;27724;-69
2021/03/27 06:06:41;;;;;;;62.67;31.15;;;;;;;7.78;64.32;100234.80;2294029;75;29852;-66
2021/03/27 06:10:10;;;;;;;68.02;29.82;;;;;;;7.84;63.99;100242.53;2301754;77;33514;-68
2021/03/27 06:13:35;;;;;;;52.83;28.15;;;;;;;7.95;64.09;100240.78;2299374;77;33119;-69
2021/03/27 06:17:07;;;;;;;60.92;32.13;;;;;;;8.11;63.79;100242.39;2301750;77;28863;-70
2021/03/27 06:21:04;;;;;;;62.55;31.00;;;;;;;8.32;63.82;100236.15;2194010;80;27558;-67
2021/03/27 06:24:33;;;;;;;55.28;29.63;;;;;;;8.63;63.72;100226.87;2174641;80;28832;-68
2021/03/27 06:27:49;;;;;;;67.20;32.33;;;;;;;8.99;63.04;100230.70;2213161;80;33117;-69
2021/03/27 06:31:47;;;;;;;64.05;31.20;;;;;;;9.34;62.95;100226.03;2186684;80;33121;-70
2021/03/27 06:35:27;;;;;;;59.38;29.57;;;;;;;9.64;62.61;100222.41;2224480;80;29426;-70
2021/03/27 06:39:03;;;;;;;56.80;28.87;;;;;;;10.06;61.92;100215.08;2214580;80;27665;-69
2021/03/27 06:42:25;;;;;;;58.55;29.57;;;;;;;10.52;61.47;100215.94;2213569;80;28810;-68
2021/03/27 06:46:13;;;;;;;55.73;28.20;;;;;;;11.01;61.31;100219.70;2151815;82;31145;-70
2021/03/27 06:49:32;;;;;;;60.50;30.08;;;;;;;11.49;60.65;100213.13;2158921;82;33065;-70
2021/03/27 06:53:19;;;;;;;55.48;27.82;;;;;;;12.07;59.98;100213.54;2141615;82;31178;-70
2021/03/27 06:56:48;;;;;;;50.88;28.05;;;;;;;12.48;58.72;100204.88;2141351;83;27669;-71
2021/03/27 07:00:35;;;;;;;52.48;29.02;;;;;;;12.84;56.84;100209.00;2132593;82;30220;-70
2021/03/27 07:04:22;;;;;;;52.35;28.10;;;;;;;13.18;57.24;100212.31;2124047;83;31724;-70
2021/03/27 07:08:05;;;;;;;51.45;28.35;;;;;;;13.54;56.87;100203.88;2118198;82;34074;-71
2021/03/27 07:11:50;;;;;;;49.08;25.65;;;;;;;13.74;56.30;100187.78;2126140;82;28955;-69
2021/03/27 07:15:40;;;;;;;52.35;26.97;;;;;;;13.96;54.02;100187.24;2136233;83;27691;-71
2021/03/27 07:19:11;;;;;;;45.52;25.82;;;;;;;14.21;54.45;100174.36;2110357;84;28844;-69
2021/03/27 07:22:44;;;;;;;42.95;25.32;;;;;;;14.54;53.77;100170.84;2143662;81;29874;-69
2021/03/27 07:26:17;;;;;;;40.23;23.15;;;;;;;14.88;53.16;100169.39;2178803;81;32311;-71
2021/03/27 07:29:33;;;;;;;43.80;25.32;;;;;;;15.35;51.41;100171.52;2179008;81;28940;-71
2021/03/27 07:32:53;;;;;;;44.08;26.15;;;;;;;15.88;51.78;100169.09;2179356;80;27680;-67
2021/03/27 07:36:32;;;;;;;43.55;25.77;;;;;;;16.33;51.82;100165.25;2173273;80;28896;-70
2021/03/27 07:39:53;;;;;;;42.23;25.08;;;;;;;16.63;49.55;100168.44;2216091;80;30336;-71
2021/03/27 07:43:36;;;;;;;42.67;26.05;;;;;;;16.88;49.35;100160.62;2177629;80;33503;-71
2021/03/27 07:47:07;;;;;;;46.02;28.90;;;;;;;16.86;48.42;100166.16;2217522;80;28895;-71
2021/03/27 07:50:49;;;;;;;49.77;29.98;;;;;;;16.65;47.80;100165.97;2157855;82;27788;-69
2021/03/27 07:54:16;;;;;;;43.20;25.20;;;;;;;16.39;48.42;100172.91;2145708;82;28922;-71
2021/03/27 07:57:44;;;;;;;46.37;25.25;;;;;;;16.19;48.33;100174.91;2133519;83;31160;-70
2021/03/27 08:01:16;;;;;;;42.70;25.23;;;;;;;16.13;48.87;100180.28;2143463;82;33243;-69
2021/03/27 08:05:12;;;;;;;42.45;24.85;;;;;;;16.07;47.77;100183.44;2261520;77;32328;-67
2021/03/27 08:08:28;;;;;;;38.58;24.00;;;;;;;15.89;48.03;100187.88;2251618;78;27683;-68
2021/03/27 08:12:01;;;;;;;45.43;24.52;;;;;;;15.74;48.18;100197.08;2068107;85;28835;-68
2021/03/27 08:15:48;;;;;;;43.68;25.20;;;;;;;15.49;48.44;100196.18;2101954;83;31189;-68
2021/03/27 08:19:34;;;;;;;40.83;23.22;;;;;;;15.32;48.80;100196.02;2104236;84;33858;-63
2021/03/27 08:23:05;;;;;;;42.30;23.80;;;;;;;15.34;48.97;100194.08;2104852;84;28550;-69
2021/03/27 08:26:37;;;;;;;45.58;24.75;;;;;;;15.46;49.32;100208.07;2103992;84;27698;-68
2021/03/27 08:30:04;;;;;;;45.95;24.50;;;;;;;15.77;49.44;100211.72;2104344;84;28831;-66
2021/03/27 08:33:47;;;;;;;36.65;22.20;;;;;;;16.27;49.16;100209.46;2297058;77;32330;-68
2021/03/27 08:37:16;;;;;;;40.48;24.37;;;;;;;16.35;49.11;100220.08;2217044;80;27704;-70
2021/03/27 08:40:49;;;;;;;38.85;21.27;;;;;;;16.44;48.92;100210.91;2204960;78;27747;-67
2021/03/27 08:44:17;;;;;;;33.90;19.48;;;;;;;16.43;48.10;100205.98;2174509;81;31148;-72
2021/03/27 08:47:53;;;;;;;38.20;21.15;;;;;;;16.43;47.83;100197.86;2174419;81;34041;-72
2021/03/27 08:51:26;;;;;;;32.73;19.73;;;;;;;16.53;48.09;100199.38;2176534;80;29043;-72
2021/03/27 08:54:58;;;;;;;38.67;19.98;;;;;;;16.68;47.34;100194.64;2176356;80;27759;-70
2021/03/27 08:58:32;;;;;;;38.80;20.23;;;;;;;16.85;47.71;100200.97;2172590;81;28822;-67
2021/03/27 09:02:11;;;;;;;34.90;19.12;;;;;;;17.07;47.68;100203.36;2174492;81;31202;-67
2021/03/27 09:05:28;;;;;;;34.08;19.40;;;;;;;17.13;47.08;100204.72;2156899;81;35469;-60
2021/03/27 09:08:57;;;;;;;33.58;19.50;;;;;;;17.27;47.12;100203.16;2178223;81;31259;-60
2021/03/27 09:12:32;;;;;;;34.33;19.32;;;;;;;17.44;46.81;100210.42;2166394;81;27603;-59
2021/03/27 09:15:58;;;;;;;33.73;18.30;;;;;;;17.61;46.57;100209.93;2202028;80;28824;-60
2021/03/27 09:19:20;;;;;;;33.78;17.80;;;;;;;17.81;45.84;100203.86;2210876;80;32051;-59
2021/03/27 09:22:31;;;;;;;32.13;17.65;;;;;;;17.96;46.07;100201.72;2169921;81;33164;-60
2021/03/27 09:26:04;;;;;;;33.38;18.15;;;;;;;18.06;45.78;100190.53;2141516;83;29367;-61
2021/03/27 09:29:32;;;;;;;28.60;14.80;;;;;;;18.22;45.24;100202.30;2178456;81;27675;-60
2021/03/27 09:33:02;;;;;;;23.77;15.53;;;;;;;18.21;44.32;100204.64;2178819;78;28819;-62
2021/03/27 09:36:21;;;;;;;30.70;14.25;;;;;;;18.35;44.35;100205.73;2146315;82;31184;-60
2021/03/27 09:39:32;;;;;;;23.92;13.62;;;;;;;18.54;43.77;100212.29;2207587;79;34052;-61
2021/03/27 09:42:59;;;;;;;22.85;14.73;;;;;;;18.54;43.77;100212.29;2183326;80;29382;-60
2021/03/27 09:46:44;;;;;;;22.35;12.85;;;;;;;18.68;43.66;100216.07;2180932;81;27607;-61
2021/03/27 09:50:11;;;;;;;28.20;14.68;;;;;;;18.96;42.23;100216.91;2180182;81;28826;-61
2021/03/27 09:53:46;;;;;;;24.90;15.80;;;;;;;18.96;42.23;100216.91;2176624;80;31214;-61
2021/03/27 09:57:02;;;;;;;27.02;14.70;;;;;;;19.06;42.88;100226.48;2213062;80;33107;-60
2021/03/27 10:00:16;;;;;;;25.37;14.10;;;;;;;19.27;43.09;100230.56;2197093;80;28926;-60
2021/03/27 10:03:52;;;;;;;25.72;12.23;;;;;;;19.44;42.33;100232.63;2163034;81;27777;-60
2021/03/27 10:07:35;;;;;;;26.12;11.95;;;;;;;19.57;42.16;100241.92;2209347;80;28832;-59
2021/03/27 10:10:45;;;;;;;22.60;12.80;;;;;;;19.69;41.46;100244.56;2220364;80;31156;-60
2021/03/27 10:14:05;;;;;;;24.12;12.73;;;;;;;19.77;40.48;100250.16;2173513;81;33654;-60
2021/03/27 10:17:30;;;;;;;22.20;12.18;;;;;;;19.82;41.03;100247.89;2192665;80;28920;-60
2021/03/27 10:20:52;;;;;;;23.83;12.75;;;;;;;19.88;40.72;100255.52;2193307;80;27784;-60
2021/03/27 10:24:05;;;;;;;22.90;13.30;;;;;;;19.86;40.10;100255.27;2200192;80;28794;-61
2021/03/27 10:27:22;;;;;;;23.92;13.15;;;;;;;19.87;40.18;100261.95;2195986;80;31723;-61
2021/03/27 10:30:35;;;;;;;26.97;13.30;;;;;;;19.86;40.17;100267.50;2175147;80;33065;-60
2021/03/27 10:34:01;;;;;;;24.40;12.93;;;;;;;19.84;39.35;100277.17;2197082;80;29267;-60
2021/03/27 10:37:27;;;;;;;30.95;15.23;;;;;;;19.81;39.88;100285.59;2187686;81;27714;-59
2021/03/27 10:40:47;;;;;;;25.90;13.50;;;;;;;19.78;39.58;100295.86;2139016;82;29364;-60
2021/03/27 10:44:15;;;;;;;20.27;12.78;;;;;;;19.56;39.23;100305.41;2134315;83;32074;-64
2021/03/27 10:47:22;;;;;;;28.85;13.60;;;;;;;19.25;39.12;100307.23;2132840;83;34232;-60
2021/03/27 10:50:52;;;;;;;19.23;12.20;;;;;;;18.94;39.33;100321.58;2343125;76;32365;-70
2021/03/27 10:54:23;;;;;;;23.90;13.25;;;;;;;18.60;40.11;100315.39;2302099;77;27659;-60
2021/03/27 10:58:02;;;;;;;26.42;12.30;;;;;;;18.32;40.04;100338.87;2302748;77;31123;-59
2021/03/27 11:01:32;;;;;;;17.42;10.65;;;;;;;17.99;40.39;100331.14;2208648;80;31287;-60
2021/03/27 11:05:00;;;;;;;14.75;7.05;;;;;;;17.58;40.61;100352.39;2228280;79;32934;-60
2021/03/27 11:08:37;;;;;;;7.67;4.53;;;;;;;17.20;40.94;100371.61;2219558;79;28747;-59
2021/03/27 11:12:06;;;;;;;9.83;4.80;;;;;;;16.77;41.57;100381.09;2232833;77;28145;-61
2021/03/27 11:15:31;;;;;;;8.60;4.75;;;;;;;16.33;42.56;100410.42;2198688;80;28822;-59
2021/03/27 11:19:15;;;;;;;7.08;4.72;;;;;;;15.93;43.57;100417.69;2189962;81;31136;-58
2021/03/27 11:23:19;;;;;;;7.17;5.08;;;;;;;15.54;44.43;100430.28;2197024;79;33382;-59
2021/03/27 11:27:16;;;;;;;9.10;7.47;;;;;;;15.20;46.03;100433.92;2228929;79;28851;-58
2021/03/27 11:31:07;;;;;;;10.40;5.95;;;;;;;14.76;47.01;100458.81;2107843;84;27687;-60
2021/03/27 11:34:37;;;;;;;6.85;5.72;;;;;;;14.35;48.84;100460.45;2108469;83;30064;-61
2021/03/27 11:38:05;;;;;;;9.70;5.58;;;;;;;14.03;50.16;100462.45;2285433;76;32388;-58
2021/03/27 11:41:22;;;;;;;7.80;5.42;;;;;;;13.85;50.59;100461.77;2162488;79;27869;-59
2021/03/27 11:44:43;;;;;;;9.80;6.15;;;;;;;13.87;51.39;100459.84;2159892;82;28910;-59
2021/03/27 11:48:04;;;;;;;7.12;5.90;;;;;;;14.03;52.27;100464.69;2159691;82;31150;-60
2021/03/27 11:51:48;;;;;;;7.15;6.00;;;;;;;14.23;52.12;100465.28;2159936;82;34046;-59
2021/03/27 11:55:02;;;;;;;12.45;7.95;;;;;;;14.50;52.56;100461.30;2135341;82;28792;-63
2021/03/27 11:58:21;;;;;;;8.98;6.10;;;;;;;14.82;52.67;100459.73;2174012;78;27774;-62
2021/03/27 12:01:28;;;;;;;11.43;7.05;;;;;;;15.01;51.59;100460.77;2202690;80;31132;-72
2021/03/27 12:05:00;;;;;;;11.80;7.45;;;;;;;15.17;51.67;100461.95;2202405;80;31190;-63
2021/03/27 12:08:31;;;;;;;9.70;6.08;;;;;;;15.31;51.51;100470.48;2202210;80;33117;-63
2021/03/27 12:11:55;;;;;;;17.10;12.45;;;;;;;15.39;51.13;100478.57;2202508;80;29273;-63
2021/03/27 12:15:20;;;;;;;10.93;6.97;;;;;;;15.33;50.38;100476.66;2202040;80;28160;-62
2021/03/27 12:18:49;;;;;;;13.22;8.35;;;;;;;15.26;50.17;100482.56;2225761;79;30194;-63
2021/03/27 12:22:06;;;;;;;10.72;6.53;;;;;;;15.26;50.47;100479.38;2210116;79;31142;-63
2021/03/27 12:25:30;;;;;;;9.23;6.92;;;;;;;15.34;50.83;100491.89;2210187;80;33101;-63
2021/03/27 12:29:03;;;;;;;11.50;7.03;;;;;;;15.39;50.12;100488.02;2210132;79;28868;-63
2021/03/27 12:32:54;;;;;;;8.95;6.05;;;;;;;15.30;50.17;100494.40;2209978;80;27693;-62
2021/03/27 12:36:38;;;;;;;8.45;5.92;;;;;;;15.27;50.06;100504.55;2210155;79;29944;-61
2021/03/27 12:40:03;;;;;;;9.10;6.03;;;;;;;15.15;49.59;100505.71;2153027;81;32522;-62
2021/03/27 12:43:16;;;;;;;8.08;5.30;;;;;;;14.93;49.65;100527.83;2162065;81;34034;-63
2021/03/27 12:46:43;;;;;;;8.10;4.65;;;;;;;14.58;50.80;100588.41;2243090;77;32320;-61
2021/03/27 12:50:13;;;;;;;6.37;5.03;;;;;;;13.91;51.43;100601.42;2179268;80;27653;-63
2021/03/27 12:54:05;;;;;;;6.50;4.40;;;;;;;13.24;52.09;100629.89;2186985;80;27730;-62
2021/03/27 12:57:35;;;;;;;6.83;4.03;;;;;;;12.69;53.04;100654.30;2178911;80;31143;-62
2021/03/27 13:00:56;;;;;;;7.40;4.45;;;;;;;12.26;53.77;100656.05;2178983;80;34089;-63
2021/03/27 13:04:36;;;;;;;5.22;3.40;;;;;;;11.90;54.26;100658.75;2210601;80;29088;-63
2021/03/27 13:08:03;;;;;;;4.35;3.10;;;;;;;11.59;54.76;100674.52;2216666;80;27707;-62
2021/03/27 13:11:22;;;;;;;4.08;2.80;;;;;;;11.37;55.39;100678.24;2202585;80;29789;-62
2021/03/27 13:15:07;;;;;;;5.17;2.77;;;;;;;11.21;55.50;100670.52;2189812;80;31250;-62
2021/03/27 13:18:33;;;;;;;5.25;3.83;;;;;;;11.04;55.94;100680.20;2207220;80;33128;-62
2021/03/27 13:22:14;;;;;;;4.45;3.90;;;;;;;10.85;56.60;100684.65;2178957;81;30164;-63
2021/03/27 13:25:27;;;;;;;7.65;5.53;;;;;;;10.76;56.69;100692.62;2114451;83;27798;-66
2021/03/27 13:28:59;;;;;;;4.78;3.33;;;;;;;10.69;57.16;100702.75;2119217;83;29078;-63
2021/03/27 13:32:25;;;;;;;9.78;5.67;;;;;;;10.58;57.60;100710.39;2152432;81;31144;-63
2021/03/27 13:35:53;;;;;;;10.08;5.58;;;;;;;10.49;58.18;100711.66;2111524;84;33139;-72
2021/03/27 13:39:21;;;;;;;7.65;4.17;;;;;;;10.36;58.94;100708.58;2104187;84;31148;-70
2021/03/27 13:42:31;;;;;;;6.40;3.40;;;;;;;10.26;58.89;100715.27;2111845;84;27718;-70
2021/03/27 13:45:58;;;;;;;10.43;5.97;;;;;;;10.26;59.62;100713.94;2111410;84;29059;-70
2021/03/27 13:49:14;;;;;;;8.18;4.25;;;;;;;10.24;59.59;100724.69;2110876;84;31302;-68
2021/03/27 13:52:34;;;;;;;37.23;15.83;;;;;;;10.19;59.91;100719.98;2111778;82;35462;-71
2021/03/27 13:55:57;;;;;;;34.63;13.25;;;;;;;10.19;60.22;100718.64;2086782;82;29287;-71
2021/03/27 13:59:13;;;;;;;28.20;11.93;;;;;;;10.13;60.46;100718.44;2132582;82;27668;-72
2021/03/27 14:02:56;;;;;;;8.48;4.37;;;;;;;10.10;60.59;100709.19;2140653;82;28886;-68
2021/03/27 14:06:24;;;;;;;40.70;15.95;;;;;;;10.01;60.49;100696.19;2147826;82;32704;-78
2021/03/27 14:09:58;;;;;;;22.65;8.73;;;;;;;9.96;60.67;100704.41;2111748;82;34392;-77
2021/03/27 14:13:25;;;;;;;8.53;4.80;;;;;;;9.97;60.76;100711.52;2141424;82;28918;-76
2021/03/27 14:17:07;;;;;;;7.92;4.30;;;;;;;10.05;60.77;100724.59;2131658;83;27636;-74
2021/03/27 14:20:26;;;;;;;7.60;3.72;;;;;;;10.13;60.79;100726.95;2135787;83;28899;-76
2021/03/27 14:23:52;;;;;;;7.53;4.20;;;;;;;10.22;61.11;100722.53;2147025;82;31583;-71
2021/03/27 14:27:23;;;;;;;7.47;3.83;;;;;;;10.35;61.28;100729.60;2147648;82;34251;-67
2021/03/27 14:30:34;;;;;;;6.62;4.35;;;;;;;10.53;61.32;100719.08;2146433;82;28870;-67
2021/03/27 14:33:56;;;;;;;8.08;4.37;;;;;;;10.72;61.18;100716.47;2122421;82;27663;-67
2021/03/27 14:37:30;;;;;;;9.48;4.72;;;;;;;10.87;61.05;100717.62;2111150;83;29284;-66
2021/03/27 14:41:01;;;;;;;7.37;5.03;;;;;;;11.04;60.98;100718.19;2129857;82;31154;-66
2021/03/27 14:44:26;;;;;;;33.67;11.97;;;;;;;11.20;60.40;100714.36;2147417;82;34500;-66
2021/03/27 14:48:17;;;;;;;26.70;11.18;;;;;;;11.30;60.48;100721.03;2133548;82;28859;-65
2021/03/27 14:51:41;;;;;;;6.20;3.98;;;;;;;11.41;59.87;100731.27;2025579;87;27779;-66
2021/03/27 14:55:19;;;;;;;6.45;3.87;;;;;;;11.46;59.25;100731.05;2068840;84;28080;-65
2021/03/27 14:58:44;;;;;;;5.20;3.40;;;;;;;11.46;59.17;100733.73;2104757;83;31157;-66
2021/03/27 15:01:51;;;;;;;7.87;4.80;;;;;;;11.43;58.80;100729.39;2059258;86;34064;-68
2021/03/27 15:05:22;;;;;;;12.47;5.67;;;;;;;11.51;58.67;100719.16;2248290;78;32331;-66
2021/03/27 15:08:46;;;;;;;6.05;3.62;;;;;;;11.45;58.29;100721.26;2224490;79;27621;-66
2021/03/27 15:11:56;;;;;;;5.78;3.67;;;;;;;11.42;58.35;100716.92;2188566;81;29653;-67
2021/03/27 15:15:18;;;;;;;6.58;3.60;;;;;;;11.45;58.17;100723.94;2173728;80;31271;-65
2021/03/27 15:18:25;;;;;;;5.15;3.75;;;;;;;11.46;58.33;100726.57;2217576;80;33129;-67
2021/03/27 15:21:38;;;;;;;5.00;3.50;;;;;;;11.53;58.38;100726.67;2215153;80;28540;-73
2021/03/27 15:28:30;;;;;;;8.83;5.83;;;;;;;11.70;57.94;100731.26;2179444;80;29765;-74
2021/03/27 15:31:49;;;;;;;5.12;3.80;;;;;;;11.77;57.92;100727.80;2195347;80;32125;-70
2021/03/27 15:35:24;;;;;;;5.08;3.37;;;;;;;11.80;57.46;100724.98;2218196;80;33969;-69
2021/03/27 15:38:40;;;;;;;5.75;4.30;;;;;;;11.73;57.00;100725.34;2182876;80;28865;-70
2021/03/27 15:42:05;;;;;;;5.62;4.25;;;;;;;11.60;56.98;100722.37;2165102;81;27804;-71
2021/03/27 15:45:47;;;;;;;4.70;3.55;;;;;;;11.53;56.69;100730.69;2205492;80;28811;-71
2021/03/27 15:49:09;;;;;;;7.67;4.72;;;;;;;11.43;56.14;100735.21;2217349;80;31196;-70
2021/03/27 15:52:42;;;;;;;5.35;3.75;;;;;;;11.26;56.48;100736.86;2212571;80;33380;-74